createdAt,value
2018-11-07T00:00:58.247Z,983.46
2018-11-07T00:01:58.379Z,983.49
2018-11-07T00:02:58.597Z,983.50
2018-11-07T00:03:58.673Z,983.49
2018-11-07T00:04:58.819Z,983.46
2018-11-07T00:05:58.969Z,983.49
2018-11-07T00:06:59.112Z,983.47
2018-11-07T00:07:59.332Z,983.50
2018-11-07T00:08:59.408Z,983.52
2018-11-07T00:09:59.554Z,983.53
2018-11-07T00:10:59.702Z,983.53
2018-11-07T00:11:59.852Z,983.51
2018-11-07T00:12:59.995Z,983.54
2018-11-07T00:14:00.189Z,983.55
2018-11-07T00:15:00.299Z,983.58
2018-11-07T00:16:00.438Z,983.58
2018-11-07T00:17:00.587Z,983.63
2018-11-07T00:18:00.736Z,983.67
2018-11-07T00:19:00.879Z,983.70
2018-11-07T00:20:01.027Z,983.74
2018-11-07T00:21:01.179Z,983.77
2018-11-07T00:22:01.334Z,983.81
2018-11-07T00:23:01.464Z,983.82
2018-11-07T00:24:01.612Z,983.87
2018-11-07T00:25:01.759Z,983.89
2018-11-07T00:26:01.903Z,983.90
2018-11-07T00:27:02.051Z,983.91
2018-11-07T00:28:02.197Z,983.89
2018-11-07T00:29:02.346Z,983.91
2018-11-07T00:30:02.536Z,983.88
2018-11-07T00:31:02.634Z,983.84
2018-11-07T00:32:02.787Z,983.86
2018-11-07T00:33:02.932Z,983.82
2018-11-07T00:34:03.078Z,983.82
2018-11-07T00:35:03.299Z,983.79
2018-11-07T00:36:03.371Z,983.86
2018-11-07T00:37:03.522Z,983.79
2018-11-07T00:38:03.669Z,983.72
2018-11-07T00:39:03.811Z,983.72
2018-11-07T00:40:03.961Z,983.72
2018-11-07T00:41:04.107Z,983.68
2018-11-07T00:42:04.258Z,983.70
2018-11-07T00:43:04.403Z,983.71
2018-11-07T00:44:04.549Z,983.68
2018-11-07T00:45:04.695Z,983.71
2018-11-07T00:46:04.845Z,983.67
2018-11-07T00:47:04.990Z,983.69
2018-11-07T00:48:05.138Z,983.67
2018-11-07T00:49:05.288Z,983.69
2018-11-07T00:50:05.627Z,983.69
2018-11-07T00:51:05.596Z,983.68
2018-11-07T00:52:05.723Z,983.65
2018-11-07T00:53:05.906Z,983.68
2018-11-07T00:54:06.010Z,983.68
2018-11-07T00:55:06.154Z,983.62
2018-11-07T00:56:06.300Z,983.64
2018-11-07T00:57:06.451Z,983.65
2018-11-07T00:58:06.593Z,983.67
2018-11-07T00:59:06.743Z,983.66
2018-11-07T01:00:06.887Z,983.66
2018-11-07T01:01:07.038Z,983.63
2018-11-07T01:02:07.179Z,983.63
2018-11-07T01:03:07.325Z,983.65
2018-11-07T01:04:07.472Z,983.64
2018-11-07T01:05:07.618Z,983.64
2018-11-07T01:06:07.764Z,983.65
2018-11-07T01:07:07.912Z,983.67
2018-11-07T01:08:08.058Z,983.67
2018-11-07T01:09:08.208Z,983.65
2018-11-07T01:10:08.358Z,983.68
2018-11-07T01:11:08.500Z,983.65
2018-11-07T01:12:08.646Z,983.68
2018-11-07T01:13:08.796Z,983.67
2018-11-07T01:14:08.942Z,983.70
2018-11-07T01:15:09.085Z,983.66
2018-11-07T01:16:09.231Z,983.66
2018-11-07T01:17:09.380Z,983.65
2018-11-07T01:18:09.524Z,983.63
2018-11-07T01:19:09.671Z,983.67
2018-11-07T01:20:09.817Z,983.67
2018-11-07T01:21:09.967Z,983.68
2018-11-07T01:22:10.159Z,983.73
2018-11-07T01:23:10.260Z,983.77
2018-11-07T01:24:10.407Z,983.77
2018-11-07T01:25:10.556Z,983.80
2018-11-07T01:26:10.702Z,983.78
2018-11-07T01:27:10.851Z,983.83
2018-11-07T01:28:11.016Z,983.75
2018-11-07T01:29:11.144Z,983.77
2018-11-07T01:30:11.290Z,983.72
2018-11-07T01:31:11.438Z,983.69
2018-11-07T01:32:11.585Z,983.70
2018-11-07T01:33:11.733Z,983.74
2018-11-07T01:34:11.879Z,983.73
2018-11-07T01:35:12.028Z,983.75
2018-11-07T01:36:12.174Z,983.73
2018-11-07T01:37:12.318Z,983.79
2018-11-07T01:38:12.468Z,983.76
2018-11-07T01:39:12.612Z,983.76
2018-11-07T01:40:12.761Z,983.78
2018-11-07T01:41:12.908Z,983.81
2018-11-07T01:42:13.127Z,983.77
2018-11-07T01:43:13.200Z,983.77
2018-11-07T01:44:13.349Z,983.73
2018-11-07T01:45:13.498Z,983.72
2018-11-07T01:46:13.646Z,983.71
2018-11-07T01:47:13.793Z,983.72
2018-11-07T01:48:13.940Z,983.71
2018-11-07T01:49:14.087Z,983.72
2018-11-07T01:50:14.252Z,983.73
2018-11-07T01:51:14.378Z,983.71
2018-11-07T01:52:14.525Z,983.74
2018-11-07T01:53:14.671Z,983.69
2018-11-07T01:54:14.817Z,983.67
2018-11-07T01:55:14.969Z,983.60
2018-11-07T01:56:15.110Z,983.55
2018-11-07T01:57:15.259Z,983.58
2018-11-07T01:58:15.409Z,983.58
2018-11-07T01:59:15.554Z,983.55
2018-11-07T02:00:15.703Z,983.49
2018-11-07T02:01:15.847Z,983.46
2018-11-07T02:02:15.994Z,983.40
2018-11-07T02:03:16.142Z,983.41
2018-11-07T02:04:16.287Z,983.41
2018-11-07T02:05:16.434Z,983.42
2018-11-07T02:06:16.583Z,983.42
2018-11-07T02:07:16.729Z,983.40
2018-11-07T02:08:16.877Z,983.41
2018-11-07T02:09:17.022Z,983.45
2018-11-07T02:10:17.169Z,983.48
2018-11-07T02:11:17.320Z,983.49
2018-11-07T02:12:17.458Z,983.53
2018-11-07T02:13:17.606Z,983.53
2018-11-07T02:14:17.755Z,983.57
2018-11-07T02:15:17.899Z,983.57
2018-11-07T02:16:18.046Z,983.54
2018-11-07T02:17:18.191Z,983.55
2018-11-07T02:18:18.341Z,983.56
2018-11-07T02:19:18.487Z,983.56
2018-11-07T02:20:18.631Z,983.56
2018-11-07T02:21:18.779Z,983.58
2018-11-07T02:22:18.925Z,983.56
2018-11-07T02:23:19.072Z,983.59
2018-11-07T02:24:19.219Z,983.55
2018-11-07T02:25:19.365Z,983.53
2018-11-07T02:26:19.545Z,983.56
2018-11-07T02:27:19.661Z,983.58
2018-11-07T02:28:19.808Z,983.57
2018-11-07T02:29:19.954Z,983.54
2018-11-07T02:30:20.101Z,983.54
2018-11-07T02:31:20.248Z,983.54
2018-11-07T02:32:20.397Z,983.51
2018-11-07T02:33:20.542Z,983.44
2018-11-07T02:34:20.695Z,983.45
2018-11-07T02:35:20.837Z,983.44
2018-11-07T02:36:20.986Z,983.42
2018-11-07T02:37:21.131Z,983.44
2018-11-07T02:38:21.277Z,983.47
2018-11-07T02:39:21.426Z,983.47
2018-11-07T02:40:21.570Z,983.48
2018-11-07T02:41:21.717Z,983.52
2018-11-07T02:42:21.864Z,983.48
2018-11-07T02:43:22.009Z,983.47
2018-11-07T02:44:22.155Z,983.48
2018-11-07T02:45:22.303Z,983.53
2018-11-07T02:46:22.454Z,983.53
2018-11-07T02:47:22.598Z,983.52
2018-11-07T02:48:22.748Z,983.56
2018-11-07T02:49:22.891Z,983.55
2018-11-07T02:50:23.039Z,983.60
2018-11-07T02:51:23.184Z,983.58
2018-11-07T02:52:23.329Z,983.64
2018-11-07T02:53:23.600Z,983.66
2018-11-07T02:54:23.622Z,983.65
2018-11-07T02:55:23.769Z,983.64
2018-11-07T02:56:23.915Z,983.63
2018-11-07T02:57:24.060Z,983.64
2018-11-07T02:58:24.210Z,983.64
2018-11-07T02:59:24.356Z,983.67
2018-11-07T03:00:24.503Z,983.66
2018-11-07T03:01:24.696Z,983.66
2018-11-07T03:02:24.800Z,983.67
2018-11-07T03:03:24.944Z,983.72
2018-11-07T03:04:25.090Z,983.69
2018-11-07T03:05:25.235Z,983.67
2018-11-07T03:06:25.383Z,983.69
2018-11-07T03:07:25.530Z,983.71
2018-11-07T03:08:25.680Z,983.70
2018-11-07T03:09:25.828Z,983.69
2018-11-07T03:10:25.979Z,983.66
2018-11-07T03:11:26.116Z,983.68
2018-11-07T03:12:26.265Z,983.63
2018-11-07T03:13:26.413Z,983.63
2018-11-07T03:14:26.560Z,983.65
2018-11-07T03:15:26.708Z,983.65
2018-11-07T03:16:26.852Z,983.64
2018-11-07T03:17:27.002Z,983.69
2018-11-07T03:18:27.146Z,983.69
2018-11-07T03:19:27.294Z,983.75
2018-11-07T03:20:27.444Z,983.71
2018-11-07T03:21:27.594Z,983.76
2018-11-07T03:22:27.740Z,983.76
2018-11-07T03:23:27.884Z,983.81
2018-11-07T03:24:28.029Z,983.84
2018-11-07T03:25:28.178Z,983.79
2018-11-07T03:26:28.324Z,983.77
2018-11-07T03:27:28.472Z,983.78
2018-11-07T03:28:28.615Z,983.79
2018-11-07T03:29:28.766Z,983.74
2018-11-07T03:30:28.909Z,983.75
2018-11-07T03:31:29.057Z,983.75
2018-11-07T03:32:29.205Z,983.70
2018-11-07T03:33:29.351Z,983.71
2018-11-07T03:34:29.502Z,983.72
2018-11-07T03:35:29.642Z,983.70
2018-11-07T03:36:29.795Z,983.66
2018-11-07T03:37:29.936Z,983.67
2018-11-07T03:38:30.084Z,983.73
2018-11-07T03:39:30.294Z,983.73
2018-11-07T03:40:30.381Z,983.77
2018-11-07T03:41:30.529Z,983.79
2018-11-07T03:42:30.674Z,983.75
2018-11-07T03:43:30.828Z,983.75
2018-11-07T03:44:30.971Z,983.77
2018-11-07T03:45:31.118Z,983.76
2018-11-07T03:46:31.265Z,983.75
2018-11-07T03:47:31.417Z,983.73
2018-11-07T03:48:31.563Z,983.78
2018-11-07T03:49:31.709Z,983.81
2018-11-07T03:50:31.856Z,983.84
2018-11-07T03:51:32.006Z,983.88
2018-11-07T03:52:32.151Z,983.84
2018-11-07T03:53:32.297Z,983.85
2018-11-07T03:54:32.444Z,983.84
2018-11-07T03:55:32.592Z,983.80
2018-11-07T03:56:32.740Z,983.77
2018-11-07T03:57:32.885Z,983.74
2018-11-07T03:58:33.034Z,983.75
2018-11-07T03:59:33.179Z,983.72
2018-11-07T04:00:33.325Z,983.76
2018-11-07T04:01:33.476Z,983.70
2018-11-07T04:02:33.625Z,983.76
2018-11-07T04:03:33.771Z,983.74
2018-11-07T04:04:34.005Z,983.83
2018-11-07T04:05:34.067Z,983.82
2018-11-07T04:06:34.212Z,983.88
2018-11-07T04:07:34.360Z,983.91
2018-11-07T04:08:34.507Z,983.89
2018-11-07T04:09:34.654Z,983.89
2018-11-07T04:10:34.798Z,983.90
2018-11-07T04:11:34.944Z,983.92
2018-11-07T04:12:35.092Z,983.94
2018-11-07T04:13:35.241Z,983.97
2018-11-07T04:14:35.385Z,983.91
2018-11-07T04:15:35.531Z,983.90
2018-11-07T04:16:35.681Z,983.87
2018-11-07T04:17:35.828Z,983.86
2018-11-07T04:18:35.976Z,983.88
2018-11-07T04:19:36.123Z,983.87
2018-11-07T04:20:36.270Z,983.85
2018-11-07T04:21:36.416Z,983.85
2018-11-07T04:22:36.565Z,983.87
2018-11-07T04:23:36.712Z,983.88
2018-11-07T04:24:36.864Z,983.91
2018-11-07T04:25:37.006Z,983.92
2018-11-07T04:26:37.156Z,983.92
2018-11-07T04:27:37.302Z,983.90
2018-11-07T04:28:37.450Z,983.88
2018-11-07T04:29:37.599Z,983.86
2018-11-07T04:30:37.743Z,983.90
2018-11-07T04:31:37.888Z,983.87
2018-11-07T04:32:38.037Z,983.86
2018-11-07T04:33:38.185Z,983.89
2018-11-07T04:34:38.333Z,983.89
2018-11-07T04:35:38.480Z,983.92
2018-11-07T04:36:38.630Z,983.89
2018-11-07T04:37:38.775Z,983.98
2018-11-07T04:38:38.925Z,983.92
2018-11-07T04:39:39.071Z,983.93
2018-11-07T04:40:39.217Z,983.89
2018-11-07T04:41:39.364Z,983.91
2018-11-07T04:42:39.514Z,983.93
2018-11-07T04:43:39.661Z,983.91
2018-11-07T04:44:39.808Z,983.91
2018-11-07T04:45:39.954Z,983.95
2018-11-07T04:46:40.108Z,984.00
2018-11-07T04:47:40.247Z,983.99
2018-11-07T04:48:40.394Z,984.07
2018-11-07T04:49:40.544Z,984.05
2018-11-07T04:50:40.691Z,984.04
2018-11-07T04:51:40.839Z,984.00
2018-11-07T04:52:40.986Z,983.98
2018-11-07T04:53:41.132Z,983.91
2018-11-07T04:54:41.288Z,983.94
2018-11-07T04:55:41.424Z,983.92
2018-11-07T04:56:41.571Z,983.90
2018-11-07T04:57:41.718Z,983.92
2018-11-07T04:58:41.867Z,983.95
2018-11-07T04:59:42.015Z,983.93
2018-11-07T05:00:42.163Z,983.97
2018-11-07T05:01:42.309Z,983.99
2018-11-07T05:02:42.444Z,983.99
2018-11-07T05:03:42.589Z,984.04
2018-11-07T05:04:42.740Z,984.05
2018-11-07T05:05:42.884Z,984.08
2018-11-07T05:06:43.031Z,984.11
2018-11-07T05:07:43.176Z,984.16
2018-11-07T05:08:43.398Z,984.13
2018-11-07T05:09:43.471Z,984.13
2018-11-07T05:10:43.621Z,984.16
2018-11-07T05:11:43.765Z,984.14
2018-11-07T05:12:43.913Z,984.15
2018-11-07T05:13:44.062Z,984.16
2018-11-07T05:14:44.210Z,984.19
2018-11-07T05:15:44.355Z,984.22
2018-11-07T05:16:44.502Z,984.25
2018-11-07T05:17:44.648Z,984.22
2018-11-07T05:18:44.798Z,984.15
2018-11-07T05:19:45.023Z,984.15
2018-11-07T05:20:45.091Z,984.12
2018-11-07T05:21:45.239Z,984.07
2018-11-07T05:22:45.386Z,984.13
2018-11-07T05:23:45.532Z,984.22
2018-11-07T05:24:45.680Z,984.26
2018-11-07T05:25:45.826Z,984.32
2018-11-07T05:26:45.977Z,984.35
2018-11-07T05:27:46.118Z,984.32
2018-11-07T05:28:46.268Z,984.31
2018-11-07T05:29:46.412Z,984.29
2018-11-07T05:30:46.557Z,984.29
2018-11-07T05:31:46.711Z,984.23
2018-11-07T05:32:46.853Z,984.24
2018-11-07T05:33:47.002Z,984.21
2018-11-07T05:34:47.808Z,984.20
2018-11-07T05:35:47.509Z,984.22
2018-11-07T05:36:47.437Z,984.24
2018-11-07T05:37:47.583Z,984.27
2018-11-07T05:38:48.079Z,984.24
2018-11-07T05:39:47.893Z,984.25
2018-11-07T05:40:48.046Z,984.22
2018-11-07T05:41:48.184Z,984.26
2018-11-07T05:42:48.370Z,984.22
2018-11-07T05:43:48.476Z,984.24
2018-11-07T05:44:48.615Z,984.20
2018-11-07T05:45:48.741Z,984.23
2018-11-07T05:46:48.887Z,984.25
2018-11-07T05:47:49.036Z,984.24
2018-11-07T05:48:49.198Z,984.26
2018-11-07T05:49:49.332Z,984.29
2018-11-07T05:50:49.476Z,984.29
2018-11-07T05:51:49.618Z,984.26
2018-11-07T05:52:49.775Z,984.27
2018-11-07T05:53:49.922Z,984.28
2018-11-07T05:54:50.081Z,984.28
2018-11-07T05:55:50.218Z,984.28
2018-11-07T05:56:50.365Z,984.27
2018-11-07T05:57:50.509Z,984.25
2018-11-07T05:58:50.658Z,984.25
2018-11-07T05:59:50.805Z,984.23
2018-11-07T06:00:50.955Z,984.25
2018-11-07T06:01:51.099Z,984.22
2018-11-07T06:02:51.246Z,984.22
2018-11-07T06:03:51.395Z,984.22
2018-11-07T06:04:51.545Z,984.21
2018-11-07T06:05:51.688Z,984.21
2018-11-07T06:06:51.835Z,984.24
2018-11-07T06:07:51.983Z,984.25
2018-11-07T06:08:52.133Z,984.26
2018-11-07T06:09:52.280Z,984.30
2018-11-07T06:10:52.424Z,984.31
2018-11-07T06:11:52.569Z,984.34
2018-11-07T06:12:52.718Z,984.32
2018-11-07T06:13:52.864Z,984.30
2018-11-07T06:14:53.011Z,984.33
2018-11-07T06:15:53.192Z,984.34
2018-11-07T06:16:53.304Z,984.38
2018-11-07T06:17:53.452Z,984.41
2018-11-07T06:18:53.599Z,984.41
2018-11-07T06:19:53.746Z,984.44
2018-11-07T06:20:53.892Z,984.45
2018-11-07T06:21:54.034Z,984.43
2018-11-07T06:22:54.218Z,984.43
2018-11-07T06:23:54.325Z,984.46
2018-11-07T06:24:54.504Z,984.44
2018-11-07T06:25:54.620Z,984.45
2018-11-07T06:26:54.765Z,984.49
2018-11-07T06:27:54.910Z,984.50
2018-11-07T06:28:55.058Z,984.52
2018-11-07T06:29:55.204Z,984.51
2018-11-07T06:30:55.394Z,984.53
2018-11-07T06:31:55.497Z,984.54
2018-11-07T06:32:55.650Z,984.58
2018-11-07T06:33:55.845Z,984.62
2018-11-07T06:34:55.941Z,984.66
2018-11-07T06:35:56.091Z,984.65
2018-11-07T06:36:56.234Z,984.69
2018-11-07T06:37:56.379Z,984.65
2018-11-07T06:38:56.526Z,984.63
2018-11-07T06:39:56.673Z,984.65
2018-11-07T06:40:56.825Z,984.65
2018-11-07T06:41:56.970Z,984.64
2018-11-07T06:42:57.114Z,984.63
2018-11-07T06:43:57.260Z,984.65
2018-11-07T06:44:57.411Z,984.65
2018-11-07T06:45:57.555Z,984.66
2018-11-07T06:46:57.702Z,984.69
2018-11-07T06:47:57.850Z,984.71
2018-11-07T06:48:57.996Z,984.71
2018-11-07T06:49:58.145Z,984.69
2018-11-07T06:50:58.295Z,984.66
2018-11-07T06:51:58.436Z,984.60
2018-11-07T06:52:58.585Z,984.58
2018-11-07T06:53:58.729Z,984.64
2018-11-07T06:54:58.877Z,984.72
2018-11-07T06:55:59.027Z,984.71
2018-11-07T06:56:59.171Z,984.74
2018-11-07T06:57:59.320Z,984.74
2018-11-07T06:58:59.468Z,984.70
2018-11-07T06:59:59.613Z,984.71
2018-11-07T07:00:59.761Z,984.77
2018-11-07T07:01:59.910Z,984.76
2018-11-07T07:03:00.056Z,984.71
2018-11-07T07:04:00.206Z,984.71
2018-11-07T07:05:00.345Z,984.72
2018-11-07T07:06:00.488Z,984.74
2018-11-07T07:07:00.642Z,984.72
2018-11-07T07:08:00.791Z,984.76
2018-11-07T07:09:00.938Z,984.70
2018-11-07T07:10:01.085Z,984.69
2018-11-07T07:11:01.235Z,984.65
2018-11-07T07:12:01.385Z,984.70
2018-11-07T07:13:01.526Z,984.72
2018-11-07T07:14:01.676Z,984.72
2018-11-07T07:15:01.829Z,984.64
2018-11-07T07:16:01.974Z,984.67
2018-11-07T07:17:02.118Z,984.72
2018-11-07T07:18:02.324Z,984.70
2018-11-07T07:19:02.411Z,984.69
2018-11-07T07:20:02.558Z,984.70
2018-11-07T07:21:02.707Z,984.71
2018-11-07T07:22:02.855Z,984.78
2018-11-07T07:23:03.000Z,984.79
2018-11-07T07:24:03.147Z,984.84
2018-11-07T07:25:03.295Z,984.84
2018-11-07T07:26:03.442Z,984.80
2018-11-07T07:27:03.588Z,984.86
2018-11-07T07:28:03.737Z,984.84
2018-11-07T07:29:03.880Z,984.84
2018-11-07T07:30:04.075Z,984.87
2018-11-07T07:31:04.176Z,984.90
2018-11-07T07:32:04.328Z,984.90
2018-11-07T07:33:04.490Z,984.91
2018-11-07T07:34:04.621Z,984.89
2018-11-07T07:35:04.768Z,984.91
2018-11-07T07:36:04.916Z,984.91
2018-11-07T07:37:05.063Z,984.92
2018-11-07T07:38:05.209Z,984.96
2018-11-07T07:39:05.357Z,984.96
2018-11-07T07:40:05.504Z,984.96
2018-11-07T07:41:05.640Z,984.98
2018-11-07T07:42:05.790Z,984.95
2018-11-07T07:43:05.936Z,984.95
2018-11-07T07:44:06.079Z,984.96
2018-11-07T07:45:06.227Z,984.99
2018-11-07T07:46:06.376Z,984.99
2018-11-07T07:47:06.520Z,985.04
2018-11-07T07:48:06.667Z,985.09
2018-11-07T07:49:06.821Z,985.03
2018-11-07T07:50:06.961Z,985.06
2018-11-07T07:51:07.108Z,985.01
2018-11-07T07:52:07.255Z,985.03
2018-11-07T07:53:07.450Z,985.01
2018-11-07T07:54:07.549Z,985.06
2018-11-07T07:55:07.697Z,985.09
2018-11-07T07:56:07.846Z,985.09
2018-11-07T07:57:07.995Z,985.12
2018-11-07T07:58:08.140Z,985.16
2018-11-07T07:59:08.287Z,985.15
2018-11-07T08:00:08.433Z,985.13
2018-11-07T08:01:08.580Z,985.16
2018-11-07T08:02:08.725Z,985.13
2018-11-07T08:03:08.874Z,985.14
2018-11-07T08:04:09.022Z,985.14
2018-11-07T08:05:09.167Z,985.17
2018-11-07T08:06:09.319Z,985.16
2018-11-07T08:07:09.540Z,985.18
2018-11-07T08:08:09.611Z,985.20
2018-11-07T08:09:09.757Z,985.19
2018-11-07T08:10:09.904Z,985.20
2018-11-07T08:11:10.051Z,985.18
2018-11-07T08:12:10.199Z,985.16
2018-11-07T08:13:10.348Z,985.14
2018-11-07T08:14:10.503Z,985.10
2018-11-07T08:15:10.645Z,985.07
2018-11-07T08:16:10.790Z,985.07
2018-11-07T08:17:10.938Z,985.04
2018-11-07T08:18:11.093Z,985.08
2018-11-07T08:19:11.235Z,985.11
2018-11-07T08:20:11.382Z,985.17
2018-11-07T08:21:11.587Z,985.15
2018-11-07T08:22:11.678Z,985.19
2018-11-07T08:23:11.826Z,985.18
2018-11-07T08:24:11.974Z,985.17
2018-11-07T08:25:12.119Z,985.19
2018-11-07T08:26:12.268Z,985.18
2018-11-07T08:27:12.416Z,985.22
2018-11-07T08:28:12.565Z,985.19
2018-11-07T08:29:12.713Z,985.20
2018-11-07T08:30:12.860Z,985.17
2018-11-07T08:31:13.007Z,985.17
2018-11-07T08:32:13.154Z,985.11
2018-11-07T08:33:13.301Z,985.12
2018-11-07T08:34:13.452Z,985.13
2018-11-07T08:35:13.603Z,985.16
2018-11-07T08:36:13.749Z,985.17
2018-11-07T08:37:13.898Z,985.13
2018-11-07T08:38:14.045Z,985.13
2018-11-07T08:39:14.193Z,985.10
2018-11-07T08:40:14.338Z,985.06
2018-11-07T08:41:14.489Z,985.09
2018-11-07T08:42:14.642Z,985.07
2018-11-07T08:43:14.791Z,985.06
2018-11-07T08:44:14.938Z,985.06
2018-11-07T08:45:15.083Z,985.08
2018-11-07T08:46:15.232Z,985.05
2018-11-07T08:47:15.381Z,985.04
2018-11-07T08:48:15.596Z,985.08
2018-11-07T08:49:15.678Z,985.09
2018-11-07T08:50:15.825Z,985.10
2018-11-07T08:51:15.987Z,985.11
2018-11-07T08:52:16.121Z,985.15
2018-11-07T08:53:16.265Z,985.14
2018-11-07T08:54:16.413Z,985.14
2018-11-07T08:55:16.563Z,985.13
2018-11-07T08:56:16.712Z,985.16
2018-11-07T08:57:16.858Z,985.16
2018-11-07T08:58:17.008Z,985.21
2018-11-07T08:59:17.155Z,985.23
2018-11-07T09:00:17.305Z,985.22
2018-11-07T09:01:17.473Z,985.23
2018-11-07T09:02:17.631Z,985.22
2018-11-07T09:03:17.750Z,985.22
2018-11-07T09:04:17.899Z,985.21
2018-11-07T09:05:18.047Z,985.24
2018-11-07T09:06:18.197Z,985.29
2018-11-07T09:07:18.346Z,985.31
2018-11-07T09:08:18.495Z,985.39
2018-11-07T09:09:18.642Z,985.37
2018-11-07T09:10:18.790Z,985.34
2018-11-07T09:11:18.938Z,985.29
2018-11-07T09:12:19.086Z,985.31
2018-11-07T09:13:19.235Z,985.28
2018-11-07T09:14:19.383Z,985.33
2018-11-07T09:15:19.530Z,985.27
2018-11-07T09:16:19.679Z,985.28
2018-11-07T09:17:19.830Z,985.21
2018-11-07T09:18:19.978Z,985.24
2018-11-07T09:19:20.124Z,985.25
2018-11-07T09:20:20.278Z,985.24
2018-11-07T09:21:20.425Z,985.22
2018-11-07T09:22:20.574Z,985.29
2018-11-07T09:23:20.723Z,985.24
2018-11-07T09:24:20.936Z,985.22
2018-11-07T09:25:21.018Z,985.19
2018-11-07T09:26:21.170Z,985.20
2018-11-07T09:27:21.321Z,985.22
2018-11-07T09:28:21.468Z,985.20
2018-11-07T09:29:21.671Z,985.15
2018-11-07T09:30:21.765Z,985.17
2018-11-07T09:31:21.961Z,985.18
2018-11-07T09:32:22.062Z,985.22
2018-11-07T09:33:22.213Z,985.25
2018-11-07T09:34:22.359Z,985.24
2018-11-07T09:35:22.504Z,985.32
2018-11-07T09:36:22.655Z,985.32
2018-11-07T09:37:22.804Z,985.34
2018-11-07T09:38:22.953Z,985.33
2018-11-07T09:39:23.100Z,985.32
2018-11-07T09:40:23.249Z,985.28
2018-11-07T09:41:23.399Z,985.33
2018-11-07T09:42:23.549Z,985.28
2018-11-07T09:43:23.696Z,985.32
2018-11-07T09:44:23.844Z,985.32
2018-11-07T09:45:23.993Z,985.34
2018-11-07T09:46:24.144Z,985.32
2018-11-07T09:47:24.306Z,985.34
2018-11-07T09:48:24.609Z,985.32
2018-11-07T09:49:24.589Z,985.30
2018-11-07T09:50:24.736Z,985.33
2018-11-07T09:51:24.884Z,985.32
2018-11-07T09:52:25.036Z,985.28
2018-11-07T09:53:25.184Z,985.31
2018-11-07T09:54:25.399Z,985.30
2018-11-07T09:55:25.480Z,985.31
2018-11-07T09:56:25.628Z,985.27
2018-11-07T09:57:25.777Z,985.29
2018-11-07T09:58:25.926Z,985.29
2018-11-07T09:59:26.140Z,985.29
2018-11-07T10:00:26.224Z,985.31
2018-11-07T10:01:26.379Z,985.35
2018-11-07T10:02:26.521Z,985.31
2018-11-07T10:03:26.671Z,985.31
2018-11-07T10:04:26.819Z,985.37
2018-11-07T10:05:27.018Z,985.34
2018-11-07T10:06:27.135Z,985.31
2018-11-07T10:07:27.267Z,985.28
2018-11-07T10:08:27.417Z,985.26
2018-11-07T10:09:27.565Z,985.27
2018-11-07T10:10:27.717Z,985.27
2018-11-07T10:11:27.866Z,985.26
2018-11-07T10:12:28.049Z,985.30
2018-11-07T10:13:28.165Z,985.28
2018-11-07T10:14:28.315Z,985.28
2018-11-07T10:15:28.464Z,985.25
2018-11-07T10:16:28.612Z,985.24
2018-11-07T10:17:28.762Z,985.31
2018-11-07T10:18:28.908Z,985.28
2018-11-07T10:19:29.064Z,985.26
2018-11-07T10:20:29.268Z,985.25
2018-11-07T10:21:29.343Z,985.33
2018-11-07T10:22:29.492Z,985.28
2018-11-07T10:23:29.642Z,985.32
2018-11-07T10:24:29.792Z,985.27
2018-11-07T10:25:29.944Z,985.26
2018-11-07T10:26:30.092Z,985.25
2018-11-07T10:27:30.504Z,985.23
2018-11-07T10:28:30.496Z,985.24
2018-11-07T10:29:30.742Z,985.27
2018-11-07T10:30:30.778Z,985.25
2018-11-07T10:31:30.833Z,985.22
2018-11-07T10:32:30.982Z,985.25
2018-11-07T10:33:31.130Z,985.23
2018-11-07T10:34:31.304Z,985.26
2018-11-07T10:35:31.428Z,985.24
2018-11-07T10:36:31.581Z,985.23
2018-11-07T10:37:32.842Z,985.18
2018-11-07T10:38:32.021Z,985.17
2018-11-07T10:39:32.037Z,985.15
2018-11-07T10:40:32.185Z,985.15
2018-11-07T10:41:32.332Z,985.10
2018-11-07T10:42:32.483Z,985.12
2018-11-07T10:43:32.632Z,985.11
2018-11-07T10:44:32.826Z,985.11
2018-11-07T10:45:32.931Z,985.13
2018-11-07T10:46:33.082Z,985.11
2018-11-07T10:47:33.233Z,985.10
2018-11-07T10:48:33.383Z,985.10
2018-11-07T10:49:33.536Z,985.09
2018-11-07T10:50:33.688Z,985.06
2018-11-07T10:51:33.838Z,985.05
2018-11-07T10:52:33.996Z,985.03
2018-11-07T10:53:34.136Z,985.05
2018-11-07T10:54:34.286Z,985.02
2018-11-07T10:55:34.442Z,985.01
2018-11-07T10:56:34.592Z,984.99
2018-11-07T10:57:34.742Z,985.03
2018-11-07T10:58:34.893Z,985.02
2018-11-07T10:59:35.045Z,985.02
2018-11-07T11:00:35.201Z,985.02
2018-11-07T11:01:35.343Z,985.04
2018-11-07T11:02:35.495Z,985.04
2018-11-07T11:03:35.652Z,985.01
2018-11-07T11:04:35.797Z,985.00
2018-11-07T11:05:35.946Z,985.01
2018-11-07T11:06:36.096Z,984.99
2018-11-07T11:07:36.249Z,985.02
2018-11-07T11:08:36.400Z,984.97
2018-11-07T11:09:36.554Z,984.94
2018-11-07T11:10:36.705Z,984.94
2018-11-07T11:11:36.858Z,984.93
2018-11-07T11:12:37.011Z,984.91
2018-11-07T11:13:37.163Z,984.94
2018-11-07T11:14:37.315Z,984.89
2018-11-07T11:15:37.467Z,984.94
2018-11-07T11:16:37.628Z,984.97
2018-11-07T11:17:37.772Z,984.93
2018-11-07T11:18:37.920Z,984.98
2018-11-07T11:19:38.071Z,984.98
2018-11-07T11:20:38.224Z,984.99
2018-11-07T11:21:38.375Z,984.99
2018-11-07T11:22:38.526Z,984.97
2018-11-07T11:23:38.681Z,984.95
2018-11-07T11:24:38.833Z,984.98
2018-11-07T11:25:38.995Z,984.99
2018-11-07T11:26:39.140Z,984.95
2018-11-07T11:27:39.291Z,984.94
2018-11-07T11:28:39.444Z,984.97
2018-11-07T11:29:39.598Z,984.94
2018-11-07T11:30:39.750Z,984.88
2018-11-07T11:31:39.906Z,984.87
2018-11-07T11:32:40.059Z,984.83
2018-11-07T11:33:40.222Z,984.82
2018-11-07T11:34:40.446Z,984.83
2018-11-07T11:35:40.519Z,984.84
2018-11-07T11:36:40.668Z,984.82
2018-11-07T11:37:40.822Z,984.83
2018-11-07T11:38:40.978Z,984.84
2018-11-07T11:39:41.128Z,984.81
2018-11-07T11:40:41.319Z,984.81
2018-11-07T11:41:41.482Z,984.82
2018-11-07T11:42:41.582Z,984.78
2018-11-07T11:43:41.759Z,984.78
2018-11-07T11:44:41.884Z,984.75
2018-11-07T11:45:42.186Z,984.74
2018-11-07T11:46:42.200Z,984.73
2018-11-07T11:47:42.367Z,984.74
2018-11-07T11:48:42.498Z,984.74
2018-11-07T11:49:42.649Z,984.74
2018-11-07T11:50:42.801Z,984.72
2018-11-07T11:51:42.953Z,984.78
2018-11-07T11:52:43.111Z,984.74
2018-11-07T11:53:43.260Z,984.74
2018-11-07T11:54:43.413Z,984.72
2018-11-07T11:55:43.564Z,984.65
2018-11-07T11:56:43.714Z,984.66
2018-11-07T11:57:43.873Z,984.65
2018-11-07T11:58:44.078Z,984.67
2018-11-07T11:59:44.603Z,984.65
2018-11-07T12:00:44.327Z,984.69
2018-11-07T12:01:44.483Z,984.67
2018-11-07T12:02:44.635Z,984.69
2018-11-07T12:03:44.790Z,984.67
2018-11-07T12:04:44.946Z,984.71
2018-11-07T12:05:45.102Z,984.69
2018-11-07T12:06:45.257Z,984.65
2018-11-07T12:07:45.412Z,984.67
2018-11-07T12:08:45.594Z,984.67
2018-11-07T12:09:45.724Z,984.67
2018-11-07T12:10:45.876Z,984.66
2018-11-07T12:11:46.055Z,984.65
2018-11-07T12:12:46.196Z,984.66
2018-11-07T12:13:46.343Z,984.66
2018-11-07T12:14:46.495Z,984.66
2018-11-07T12:15:46.651Z,984.74
2018-11-07T12:16:46.810Z,984.69
2018-11-07T12:17:47.010Z,984.69
2018-11-07T12:18:47.133Z,984.67
2018-11-07T12:19:47.287Z,984.69
2018-11-07T12:20:47.443Z,984.68
2018-11-07T12:21:47.603Z,984.65
2018-11-07T12:22:47.756Z,984.65
2018-11-07T12:23:47.911Z,984.65
2018-11-07T12:24:48.070Z,984.71
2018-11-07T12:25:48.226Z,984.70
2018-11-07T12:26:48.439Z,984.70
2018-11-07T12:27:48.544Z,984.74
2018-11-07T12:28:48.699Z,984.74
2018-11-07T12:29:48.854Z,984.73
2018-11-07T12:30:49.013Z,984.77